createdAt,value
2023-02-11T00:00:17.831Z,12.48
2023-02-11T00:02:47.709Z,12.80
2023-02-11T00:05:15.186Z,12.23
2023-02-11T00:07:42.076Z,12.05
2023-02-11T00:10:09.330Z,12.27
2023-02-11T00:12:37.613Z,12.52
2023-02-11T00:15:05.906Z,10.90
2023-02-11T00:17:33.037Z,11.98
2023-02-11T00:19:59.763Z,12.35
2023-02-11T00:22:27.311Z,13.10
2023-02-11T00:24:54.141Z,11.63
2023-02-11T00:27:20.977Z,12.98
2023-02-11T00:29:47.762Z,12.70
2023-02-11T00:32:14.569Z,11.88
2023-02-11T00:34:41.278Z,11.20
2023-02-11T00:37:07.983Z,12.82
2023-02-11T00:39:34.687Z,13.02
2023-02-11T00:42:03.374Z,12.07
2023-02-11T00:44:30.225Z,12.80
2023-02-11T00:46:57.170Z,12.45
2023-02-11T00:49:25.196Z,13.65
2023-02-11T00:51:52.362Z,13.13
2023-02-11T00:54:20.127Z,12.15
2023-02-11T00:56:46.854Z,13.05
2023-02-11T00:59:13.882Z,12.73
2023-02-11T01:01:44.004Z,12.90
2023-02-11T01:04:10.836Z,12.93
2023-02-11T01:06:37.492Z,12.75
2023-02-11T01:09:05.708Z,12.98
2023-02-11T01:11:35.229Z,11.25
2023-02-11T01:14:02.543Z,12.13
2023-02-11T01:16:29.503Z,13.32
2023-02-11T01:18:56.162Z,13.82
2023-02-11T01:21:23.036Z,12.35
2023-02-11T01:23:51.181Z,11.98
2023-02-11T01:26:17.904Z,12.18
2023-02-11T01:28:44.974Z,12.75
2023-02-11T01:31:11.808Z,12.88
2023-02-11T01:33:38.638Z,12.48
2023-02-11T01:36:07.196Z,13.68
2023-02-11T01:38:34.229Z,11.57
2023-02-11T01:41:07.157Z,13.55
2023-02-11T01:43:41.366Z,12.70
2023-02-11T01:46:32.186Z,13.13
2023-02-11T01:49:10.680Z,13.30
2023-02-11T01:51:40.129Z,13.90
2023-02-11T01:54:28.711Z,14.13
2023-02-11T01:57:16.692Z,12.10
2023-02-11T02:00:07.978Z,13.23
2023-02-11T02:02:58.424Z,12.85
2023-02-11T02:05:43.542Z,12.13
2023-02-11T02:08:29.372Z,14.45
2023-02-11T02:10:58.428Z,12.82
2023-02-11T02:13:25.893Z,11.55
2023-02-11T02:15:59.217Z,11.77
2023-02-11T02:19:18.298Z,13.57
2023-02-11T02:22:05.098Z,12.60
2023-02-11T02:25:03.222Z,13.07
2023-02-11T02:28:09.944Z,12.50
2023-02-11T02:31:03.220Z,11.27
2023-02-11T02:33:37.825Z,11.68
2023-02-11T02:36:26.467Z,11.80
2023-02-11T02:39:04.313Z,11.98
2023-02-11T02:41:34.187Z,12.63
2023-02-11T02:44:01.731Z,11.88
2023-02-11T02:46:32.321Z,11.48
2023-02-11T02:48:59.669Z,11.33
2023-02-11T02:51:58.956Z,12.18
2023-02-11T02:55:02.039Z,12.90
2023-02-11T02:57:31.269Z,11.98
2023-02-11T03:00:05.341Z,11.95
2023-02-11T03:03:05.535Z,12.02
2023-02-11T03:05:50.748Z,12.77
2023-02-11T03:08:24.268Z,12.20
2023-02-11T03:10:53.685Z,11.48
2023-02-11T03:13:26.073Z,12.02
2023-02-11T03:15:56.923Z,12.82
2023-02-11T03:18:30.777Z,12.63
2023-02-11T03:20:59.820Z,12.35
2023-02-11T03:23:57.925Z,12.65
2023-02-11T03:26:34.401Z,13.32
2023-02-11T03:29:07.679Z,13.15
2023-02-11T03:31:41.483Z,11.68
2023-02-11T03:34:15.621Z,12.02
2023-02-11T03:36:48.570Z,11.77
2023-02-11T03:39:25.409Z,13.60
2023-02-11T03:41:55.651Z,12.60
2023-02-11T03:44:29.859Z,12.32
2023-02-11T03:46:56.695Z,12.13
2023-02-11T03:49:27.718Z,12.07
2023-02-11T03:51:55.827Z,11.95
2023-02-11T03:54:30.219Z,13.40
2023-02-11T03:57:00.008Z,10.57
2023-02-11T03:59:27.306Z,11.75
2023-02-11T04:01:54.532Z,11.93
2023-02-11T04:04:21.382Z,11.95
2023-02-11T04:06:48.114Z,11.77
2023-02-11T04:09:15.170Z,11.75
2023-02-11T04:11:42.151Z,11.60
2023-02-11T04:14:09.132Z,12.93
2023-02-11T04:16:35.885Z,12.02
2023-02-11T04:19:02.703Z,12.05
2023-02-11T04:21:29.526Z,12.90
2023-02-11T04:23:56.227Z,12.85
2023-02-11T04:26:23.417Z,12.40
2023-02-11T04:28:50.664Z,13.02
2023-02-11T04:31:17.499Z,11.07
2023-02-11T04:33:44.281Z,11.88
2023-02-11T04:36:11.201Z,12.40
2023-02-11T04:38:37.929Z,11.85
2023-02-11T04:41:04.739Z,11.40
2023-02-11T04:43:31.449Z,12.25
2023-02-11T04:45:58.880Z,10.88
2023-02-11T04:48:26.203Z,11.70
2023-02-11T04:50:52.928Z,10.43
2023-02-11T04:53:19.688Z,11.15
2023-02-11T04:55:50.910Z,10.98
2023-02-11T05:00:46.098Z,11.05
2023-02-11T05:03:13.030Z,10.50
2023-02-11T05:05:41.476Z,11.60
2023-02-11T05:08:09.371Z,11.43
2023-02-11T05:10:36.426Z,11.70
2023-02-11T05:13:03.568Z,12.65
2023-02-11T05:15:30.690Z,10.75
2023-02-11T05:17:57.422Z,10.32
2023-02-11T05:20:24.438Z,10.27
2023-02-11T05:22:51.178Z,10.70
2023-02-11T05:25:18.524Z,11.68
2023-02-11T05:27:45.262Z,11.80
2023-02-11T05:30:12.462Z,11.55
2023-02-11T05:32:39.138Z,9.95
2023-02-11T05:35:06.360Z,10.20
2023-02-11T05:37:33.540Z,10.75
2023-02-11T05:40:00.215Z,9.48
2023-02-11T05:42:26.995Z,10.38
2023-02-11T05:44:54.020Z,10.98
2023-02-11T05:47:20.677Z,10.02
2023-02-11T05:49:47.625Z,10.82
2023-02-11T05:52:14.519Z,10.23
2023-02-11T05:54:41.322Z,10.10
2023-02-11T05:57:08.008Z,9.65
2023-02-11T05:59:34.690Z,10.23
2023-02-11T06:02:02.069Z,9.73
2023-02-11T06:04:28.779Z,11.07
2023-02-11T06:06:55.510Z,9.48
2023-02-11T06:09:22.413Z,8.82
2023-02-11T06:11:49.109Z,9.55
2023-02-11T06:14:16.224Z,9.80
2023-02-11T06:16:43.218Z,9.68
2023-02-11T06:19:10.267Z,10.02
2023-02-11T06:21:43.953Z,9.02
2023-02-11T06:24:11.809Z,11.05
2023-02-11T06:26:38.462Z,13.30
2023-02-11T06:29:05.315Z,11.35
2023-02-11T06:31:32.141Z,11.32
2023-02-11T06:33:59.290Z,9.55
2023-02-11T06:36:26.273Z,10.63
2023-02-11T06:38:53.086Z,9.40
2023-02-11T06:41:20.408Z,9.48
2023-02-11T06:43:47.545Z,10.93
2023-02-11T06:46:14.985Z,10.38
2023-02-11T06:48:44.459Z,11.80
2023-02-11T06:51:13.304Z,10.15
2023-02-11T06:53:43.210Z,10.15
2023-02-11T06:56:12.447Z,9.77
2023-02-11T06:58:39.224Z,10.35
2023-02-11T07:01:11.147Z,9.35
2023-02-11T07:03:40.399Z,10.45
2023-02-11T07:06:08.637Z,11.05
2023-02-11T07:08:36.512Z,10.43
2023-02-11T07:11:13.690Z,10.18
2023-02-11T07:13:41.407Z,12.18
2023-02-11T07:16:11.480Z,10.60
2023-02-11T07:18:38.370Z,10.43
2023-02-11T07:21:10.263Z,10.23
2023-02-11T07:23:38.108Z,10.98
2023-02-11T07:26:06.578Z,9.82
2023-02-11T07:28:35.799Z,9.82
2023-02-11T07:31:10.475Z,10.30
2023-02-11T07:33:38.137Z,10.00
2023-02-11T07:36:06.770Z,10.90
2023-02-11T07:38:34.969Z,10.65
2023-02-11T07:41:07.706Z,10.75
2023-02-11T07:43:35.206Z,11.32
2023-02-11T07:46:06.800Z,11.27
2023-02-11T07:51:13.408Z,13.27
2023-02-11T07:53:40.470Z,12.60
2023-02-11T07:56:08.659Z,12.55
2023-02-11T07:58:36.090Z,12.90
2023-02-11T08:01:05.020Z,12.52
2023-02-11T08:03:33.217Z,13.55
2023-02-11T08:06:05.090Z,13.43
2023-02-11T08:08:31.851Z,13.40
2023-02-11T08:10:58.898Z,13.02
2023-02-11T08:13:26.901Z,12.18
2023-02-11T08:15:53.629Z,13.32
2023-02-11T08:18:20.564Z,12.52
2023-02-11T08:20:47.570Z,14.50
2023-02-11T08:23:14.239Z,13.90
2023-02-11T08:25:40.989Z,14.55
2023-02-11T08:28:09.041Z,13.65
2023-02-11T08:30:36.056Z,12.63
2023-02-11T08:33:02.817Z,13.07
2023-02-11T08:35:29.829Z,14.38
2023-02-11T08:37:56.578Z,14.13
2023-02-11T08:40:23.437Z,13.50
2023-02-11T08:42:50.155Z,15.10
2023-02-11T08:45:17.326Z,15.25
2023-02-11T08:47:44.011Z,14.35
2023-02-11T08:50:10.710Z,14.88
2023-02-11T08:52:37.480Z,14.63
2023-02-11T08:55:04.651Z,14.70
2023-02-11T08:57:31.341Z,12.73
2023-02-11T08:59:58.502Z,14.25
2023-02-11T09:02:25.305Z,14.00
2023-02-11T09:04:52.255Z,14.35
2023-02-11T09:07:19.129Z,15.55
2023-02-11T09:09:46.052Z,14.75
2023-02-11T09:12:12.760Z,14.63
2023-02-11T09:14:39.595Z,14.02
2023-02-11T09:17:06.500Z,14.15
2023-02-11T09:19:33.320Z,14.07
2023-02-11T09:22:01.348Z,14.38
2023-02-11T09:24:28.093Z,14.68
2023-02-11T09:26:54.814Z,13.77
2023-02-11T09:29:22.156Z,14.18
2023-02-11T09:31:49.816Z,14.35
2023-02-11T09:34:16.812Z,16.40
2023-02-11T09:36:43.567Z,14.02
2023-02-11T09:39:19.540Z,13.88
2023-02-11T09:42:10.351Z,13.07
2023-02-11T09:44:38.368Z,13.10
2023-02-11T09:47:15.795Z,13.10
2023-02-11T09:49:51.693Z,11.20
2023-02-11T09:52:39.510Z,10.43
2023-02-11T09:55:30.030Z,11.93
2023-02-11T09:57:57.942Z,12.85
2023-02-11T10:00:28.707Z,12.65
2023-02-11T10:03:07.226Z,19.00
2023-02-11T10:05:50.817Z,12.95
2023-02-11T10:08:52.592Z,12.60
2023-02-11T10:14:18.105Z,10.65
2023-02-11T10:17:14.246Z,12.25
2023-02-11T10:20:08.540Z,11.77
2023-02-11T10:23:01.720Z,10.15
2023-02-11T10:25:45.148Z,11.15
2023-02-11T10:28:15.929Z,11.30
2023-02-11T10:31:02.446Z,10.15
2023-02-11T10:33:35.459Z,11.32
2023-02-11T10:36:04.249Z,10.85
2023-02-11T10:38:32.968Z,10.77
2023-02-11T10:41:00.281Z,10.55
2023-02-11T10:43:28.925Z,10.80
2023-02-11T10:45:57.238Z,9.43
2023-02-11T10:48:49.262Z,11.18
2023-02-11T10:51:15.909Z,9.02
2023-02-11T10:53:42.865Z,9.98
2023-02-11T10:56:14.282Z,8.73
2023-02-11T10:58:45.705Z,9.70
2023-02-11T11:01:24.294Z,9.13
2023-02-11T11:03:52.939Z,9.27
2023-02-11T11:06:32.124Z,10.00
2023-02-11T11:08:58.812Z,8.75
2023-02-11T11:11:27.181Z,9.80
2023-02-11T11:13:54.017Z,9.95
2023-02-11T11:16:22.705Z,9.98
2023-02-11T11:19:10.690Z,10.13
2023-02-11T11:21:49.473Z,9.23
2023-02-11T11:24:57.320Z,9.40
2023-02-11T11:27:25.904Z,10.95
2023-02-11T11:29:56.223Z,9.73
2023-02-11T11:32:29.268Z,8.40
2023-02-11T11:35:00.149Z,8.52
2023-02-11T11:37:35.945Z,9.32
2023-02-11T11:40:07.960Z,8.30
2023-02-11T11:42:37.607Z,8.55
2023-02-11T11:45:24.707Z,9.07
2023-02-11T11:48:32.736Z,8.50
2023-02-11T11:51:06.443Z,8.50
2023-02-11T11:53:44.025Z,9.25
2023-02-11T11:56:41.359Z,8.02
2023-02-11T11:59:15.037Z,7.80
2023-02-11T12:01:50.866Z,8.02
2023-02-11T12:04:55.083Z,7.93
2023-02-11T12:08:18.048Z,8.38
2023-02-11T12:11:12.957Z,7.93
2023-02-11T12:13:53.960Z,7.93
2023-02-11T12:16:39.325Z,8.27
2023-02-11T12:19:21.441Z,8.02
2023-02-11T12:22:05.140Z,7.88
2023-02-11T12:24:37.824Z,7.85
2023-02-11T12:27:12.936Z,7.28
2023-02-11T12:29:51.278Z,8.50
2023-02-11T12:32:39.159Z,7.43
2023-02-11T12:35:39.622Z,8.02
2023-02-11T12:38:31.450Z,6.72
2023-02-11T12:41:46.792Z,6.80
2023-02-11T12:44:57.805Z,6.50
2023-02-11T12:47:50.733Z,7.32
2023-02-11T12:50:47.048Z,7.38
2023-02-11T12:53:31.733Z,7.75
2023-02-11T12:56:19.523Z,7.53
2023-02-11T12:58:47.496Z,8.43
2023-02-11T13:01:22.917Z,7.03
2023-02-11T13:04:09.120Z,7.15
2023-02-11T13:07:14.511Z,6.93
2023-02-11T13:10:07.621Z,8.23
2023-02-11T13:12:55.209Z,7.30
2023-02-11T13:15:22.070Z,8.23
2023-02-11T13:18:22.464Z,7.88
2023-02-11T13:21:30.985Z,8.07
2023-02-11T13:24:32.688Z,8.00
2023-02-11T13:27:15.091Z,8.02
2023-02-11T13:30:04.465Z,7.30
2023-02-11T13:32:55.861Z,7.40
2023-02-11T13:35:44.822Z,8.18
2023-02-11T13:38:17.260Z,8.25
2023-02-11T13:40:44.886Z,8.23
2023-02-11T13:43:23.663Z,7.07
2023-02-11T13:45:52.055Z,8.07
2023-02-11T13:48:30.378Z,7.75
2023-02-11T13:51:00.572Z,7.00
2023-02-11T13:53:28.046Z,7.55
2023-02-11T13:56:09.299Z,8.35
2023-02-11T13:58:39.966Z,7.95
2023-02-11T14:01:07.674Z,8.53
2023-02-11T14:03:55.738Z,7.43
2023-02-11T14:07:06.068Z,7.88
2023-02-11T14:09:36.025Z,6.57
2023-02-11T14:12:24.816Z,8.07
2023-02-11T14:15:02.875Z,8.15
2023-02-11T14:17:33.891Z,7.68
2023-02-11T14:20:04.392Z,7.70
2023-02-11T14:22:42.320Z,7.35
2023-02-11T14:25:24.733Z,8.13
2023-02-11T14:28:17.818Z,8.55
2023-02-11T14:31:03.219Z,7.00
2023-02-11T14:33:46.305Z,7.22
2023-02-11T14:36:48.759Z,7.03
2023-02-11T14:39:25.367Z,7.10
2023-02-11T14:41:52.632Z,7.47
2023-02-11T14:44:27.263Z,7.82
2023-02-11T14:46:55.384Z,7.00
2023-02-11T14:49:27.743Z,8.02
2023-02-11T14:52:00.201Z,7.57
2023-02-11T14:54:28.744Z,8.32
2023-02-11T14:57:12.481Z,7.00
2023-02-11T14:59:40.035Z,7.72
2023-02-11T15:02:29.949Z,7.25
2023-02-11T15:05:26.076Z,7.80
2023-02-11T15:08:02.032Z,7.97
2023-02-11T15:10:41.130Z,7.07
2023-02-11T15:13:09.032Z,7.18
2023-02-11T15:15:40.627Z,8.00
2023-02-11T15:20:36.934Z,6.47
2023-02-11T15:23:08.154Z,6.32
2023-02-11T15:25:43.915Z,7.35
2023-02-11T15:28:22.212Z,7.03
2023-02-11T15:30:59.648Z,6.30
2023-02-11T15:33:29.897Z,5.88
2023-02-11T15:35:57.457Z,7.78
2023-02-11T15:38:24.203Z,6.60
2023-02-11T15:40:55.049Z,6.72
2023-02-11T15:43:21.827Z,6.78
2023-02-11T15:45:51.299Z,6.68
2023-02-11T15:48:26.789Z,6.40
2023-02-11T15:51:01.155Z,7.78
2023-02-11T15:53:34.773Z,9.63
2023-02-11T15:56:44.173Z,8.95
2023-02-11T15:59:22.469Z,9.65
2023-02-11T16:01:49.787Z,10.98
2023-02-11T16:04:23.226Z,10.43
2023-02-11T16:11:09.073Z,9.82
2023-02-11T16:13:46.584Z,8.90
2023-02-11T16:16:34.749Z,8.55
2023-02-11T16:19:06.162Z,10.45
2023-02-11T16:21:43.073Z,10.07
2023-02-11T16:24:24.427Z,9.75
2023-02-11T16:26:55.062Z,8.45
2023-02-11T16:29:27.350Z,7.82
2023-02-11T16:32:06.269Z,8.60
2023-02-11T16:34:33.284Z,7.32
2023-02-11T16:37:06.261Z,7.28
2023-02-11T16:39:33.516Z,7.35
2023-02-11T16:42:01.305Z,8.00
2023-02-11T16:44:28.781Z,8.73
2023-02-11T16:46:59.599Z,8.35
2023-02-11T16:49:41.827Z,7.95
2023-02-11T16:52:14.712Z,7.80
2023-02-11T16:54:41.497Z,7.75
2023-02-11T16:57:22.241Z,7.97
2023-02-11T16:59:49.659Z,8.10
2023-02-11T17:02:25.702Z,8.50
2023-02-11T17:04:53.960Z,7.93
2023-02-11T17:07:21.060Z,7.85
2023-02-11T17:09:48.015Z,7.88
2023-02-11T17:12:15.166Z,7.70
2023-02-11T17:14:41.899Z,8.40
2023-02-11T17:17:10.067Z,7.82
2023-02-11T17:19:37.937Z,8.50
2023-02-11T17:22:05.385Z,7.55
2023-02-11T17:24:32.625Z,7.25
2023-02-11T17:26:59.435Z,6.60
2023-02-11T17:29:26.312Z,8.30
2023-02-11T17:31:53.443Z,7.28
2023-02-11T17:34:22.360Z,7.70
2023-02-11T17:36:49.795Z,7.57
2023-02-11T17:39:16.582Z,8.65
2023-02-11T17:41:43.597Z,7.35
2023-02-11T17:44:12.508Z,7.88
2023-02-11T17:46:39.516Z,8.52
2023-02-11T17:49:06.451Z,7.03
2023-02-11T17:51:36.152Z,6.95
2023-02-11T17:54:12.183Z,7.32
2023-02-11T17:56:39.394Z,7.43
2023-02-11T17:59:08.406Z,7.80
2023-02-11T18:01:37.296Z,7.50
2023-02-11T18:04:05.090Z,8.00
2023-02-11T18:06:33.783Z,7.15
2023-02-11T18:09:04.183Z,7.45
2023-02-11T18:11:32.722Z,6.90
2023-02-11T18:14:00.059Z,7.82
2023-02-11T18:16:29.389Z,7.65
2023-02-11T18:18:58.216Z,8.80
2023-02-11T18:21:25.385Z,7.78
2023-02-11T18:23:52.541Z,8.00
2023-02-11T18:26:20.783Z,6.95
2023-02-11T18:28:48.327Z,7.57
2023-02-11T18:31:17.168Z,7.93
2023-02-11T18:33:44.597Z,9.45
2023-02-11T18:36:13.829Z,6.70
2023-02-11T18:38:42.262Z,8.00
2023-02-11T18:41:09.018Z,8.32
2023-02-11T18:43:36.634Z,7.32
2023-02-11T18:46:08.523Z,7.55
2023-02-11T18:48:35.627Z,7.95
2023-02-11T18:51:02.414Z,7.47
2023-02-11T18:53:29.290Z,7.55
2023-02-11T18:55:56.036Z,8.52
2023-02-11T18:58:22.803Z,9.05
2023-02-11T19:00:50.267Z,9.68
2023-02-11T19:03:17.369Z,9.15
2023-02-11T19:05:48.207Z,10.02
2023-02-11T19:08:16.037Z,9.63
2023-02-11T19:10:45.031Z,9.70
2023-02-11T19:13:12.320Z,9.63
2023-02-11T19:15:42.872Z,9.82
2023-02-11T19:18:10.588Z,9.20
2023-02-11T19:20:42.265Z,10.25
2023-02-11T19:25:36.419Z,10.27
2023-02-11T19:28:03.666Z,10.82
2023-02-11T19:30:30.775Z,9.02
2023-02-11T19:32:57.866Z,10.10
2023-02-11T19:35:25.362Z,9.38
2023-02-11T19:37:52.227Z,9.13
2023-02-11T19:40:21.235Z,9.80
2023-02-11T19:42:48.395Z,8.90
2023-02-11T19:45:15.524Z,8.30
2023-02-11T19:47:42.295Z,10.38
2023-02-11T19:50:09.961Z,8.98
2023-02-11T19:52:40.733Z,10.82
2023-02-11T19:55:08.467Z,10.68
2023-02-11T19:57:36.978Z,11.20
2023-02-11T20:00:04.675Z,9.88
2023-02-11T20:02:40.192Z,9.93
2023-02-11T20:05:07.363Z,9.35
2023-02-11T20:07:35.201Z,10.25
2023-02-11T20:10:02.254Z,11.20
2023-02-11T20:12:29.290Z,11.05
2023-02-11T20:14:56.062Z,10.63
2023-02-11T20:17:22.845Z,11.40
2023-02-11T20:19:49.684Z,9.32
2023-02-11T20:22:16.517Z,11.50
2023-02-11T20:24:43.324Z,10.07
2023-02-11T20:27:11.521Z,12.55
2023-02-11T20:29:39.003Z,9.98
2023-02-11T20:32:07.341Z,11.02
2023-02-11T20:34:34.317Z,9.77
2023-02-11T20:37:03.006Z,10.48
2023-02-11T20:39:29.812Z,12.05
2023-02-11T20:41:57.581Z,13.18
2023-02-11T20:44:24.873Z,14.07
2023-02-11T20:46:54.023Z,13.55
2023-02-11T20:49:23.946Z,11.98
2023-02-11T20:51:52.502Z,13.05
2023-02-11T20:54:21.278Z,11.18
2023-02-11T20:56:50.685Z,12.60
2023-02-11T20:59:18.331Z,10.48
2023-02-11T21:01:48.333Z,11.15
2023-02-11T21:04:20.767Z,10.85
2023-02-11T21:06:50.019Z,9.45
2023-02-11T21:09:22.113Z,10.27
2023-02-11T21:11:51.663Z,11.23
2023-02-11T21:14:20.762Z,12.15
2023-02-11T21:16:48.699Z,12.40
2023-02-11T21:19:16.150Z,13.40
2023-02-11T21:21:43.464Z,14.45
2023-02-11T21:24:10.851Z,13.45
2023-02-11T21:26:38.310Z,13.98
2023-02-11T21:29:07.293Z,16.23
2023-02-11T21:31:36.465Z,14.43
2023-02-11T21:34:04.275Z,13.45
2023-02-11T21:36:31.519Z,15.15
2023-02-11T21:38:58.819Z,15.00
2023-02-11T21:41:27.416Z,12.95
2023-02-11T21:43:54.675Z,12.32
2023-02-11T21:46:22.394Z,13.48
2023-02-11T21:48:49.883Z,12.50
2023-02-11T21:51:19.609Z,14.50
2023-02-11T21:53:46.784Z,14.07
2023-02-11T21:56:16.630Z,12.20
2023-02-11T21:58:44.166Z,13.95
2023-02-11T22:01:20.575Z,13.90
2023-02-11T22:03:48.246Z,15.27
2023-02-11T22:06:26.160Z,16.10
2023-02-11T22:08:54.730Z,16.55
2023-02-11T22:11:21.852Z,14.32
2023-02-11T22:13:52.477Z,16.92
2023-02-11T22:16:19.256Z,14.55
2023-02-11T22:18:46.522Z,18.90
2023-02-11T22:21:16.492Z,15.77
2023-02-11T22:23:43.871Z,15.80
2023-02-11T22:26:19.184Z,15.40
2023-02-11T22:28:46.650Z,13.65
2023-02-11T22:31:20.054Z,12.35
2023-02-11T22:33:47.664Z,14.40
2023-02-11T22:36:23.095Z,13.30
2023-02-11T22:38:50.111Z,12.82
2023-02-11T22:41:17.639Z,11.93
2023-02-11T22:43:45.605Z,12.80
2023-02-11T22:46:15.485Z,13.63
2023-02-11T22:48:42.404Z,12.35
2023-02-11T22:51:12.983Z,13.60
2023-02-11T22:53:40.209Z,13.95
2023-02-11T22:56:09.924Z,15.68
2023-02-11T22:58:37.692Z,14.80
2023-02-11T23:01:05.999Z,15.23
2023-02-11T23:03:34.830Z,16.20
2023-02-11T23:06:02.347Z,15.07
2023-02-11T23:08:30.535Z,14.43
2023-02-11T23:11:07.060Z,12.40
2023-02-11T23:13:36.542Z,12.73
2023-02-11T23:16:09.332Z,12.27
2023-02-11T23:18:38.243Z,12.55
2023-02-11T23:21:09.490Z,13.68
2023-02-11T23:23:38.927Z,12.40
2023-02-11T23:26:10.199Z,14.77
2023-02-11T23:28:37.000Z,14.13
2023-02-11T23:31:18.201Z,12.50
2023-02-11T23:33:46.478Z,12.85
2023-02-11T23:36:14.170Z,12.98
2023-02-11T23:38:41.313Z,12.20
2023-02-11T23:41:08.566Z,13.02
2023-02-11T23:43:35.350Z,12.77
2023-02-11T23:46:02.806Z,12.38
2023-02-11T23:48:29.610Z,13.40
2023-02-11T23:50:56.360Z,13.40
2023-02-11T23:53:23.182Z,12.00
2023-02-11T23:55:50.325Z,11.95
2023-02-11T23:58:17.186Z,12.50
